sensor_id;sensor_type;location;lat;lon;timestamp;temperature;humidity
5200;DHT22;2619;47.868;11.892;2022-08-03T00:01:37;15.40;99.90
5200;DHT22;2619;47.868;11.892;2022-08-03T00:04:04;15.40;99.90
5200;DHT22;2619;47.868;11.892;2022-08-03T00:06:30;15.40;99.90
5200;DHT22;2619;47.868;11.892;2022-08-03T00:08:56;15.40;99.90
5200;DHT22;2619;47.868;11.892;2022-08-03T00:11:21;15.40;99.90
5200;DHT22;2619;47.868;11.892;2022-08-03T00:13:47;15.30;99.90
5200;DHT22;2619;47.868;11.892;2022-08-03T00:16:13;15.30;99.90
5200;DHT22;2619;47.868;11.892;2022-08-03T00:18:39;15.30;99.90
5200;DHT22;2619;47.868;11.892;2022-08-03T00:21:05;15.30;99.90
5200;DHT22;2619;47.868;11.892;2022-08-03T00:23:31;15.20;99.90
5200;DHT22;2619;47.868;11.892;2022-08-03T00:25:57;15.20;99.90
5200;DHT22;2619;47.868;11.892;2022-08-03T00:28:22;15.10;99.90
5200;DHT22;2619;47.868;11.892;2022-08-03T00:30:48;15.10;99.90
5200;DHT22;2619;47.868;11.892;2022-08-03T00:33:14;15.20;99.90
5200;DHT22;2619;47.868;11.892;2022-08-03T00:35:39;15.10;99.90
5200;DHT22;2619;47.868;11.892;2022-08-03T00:38:05;15.20;99.90
5200;DHT22;2619;47.868;11.892;2022-08-03T00:40:31;15.00;99.90
5200;DHT22;2619;47.868;11.892;2022-08-03T00:42:58;15.00;99.90
5200;DHT22;2619;47.868;11.892;2022-08-03T00:45:35;15.00;99.90
5200;DHT22;2619;47.868;11.892;2022-08-03T00:48:03;15.00;99.90
5200;DHT22;2619;47.868;11.892;2022-08-03T00:50:31;15.00;99.90
5200;DHT22;2619;47.868;11.892;2022-08-03T00:52:59;15.00;99.90
5200;DHT22;2619;47.868;11.892;2022-08-03T00:55:25;14.80;99.90
5200;DHT22;2619;47.868;11.892;2022-08-03T00:57:51;14.80;99.90
5200;DHT22;2619;47.868;11.892;2022-08-03T01:00:22;14.80;99.90
5200;DHT22;2619;47.868;11.892;2022-08-03T01:02:49;14.80;99.90
5200;DHT22;2619;47.868;11.892;2022-08-03T01:05:14;14.70;99.90
5200;DHT22;2619;47.868;11.892;2022-08-03T01:08:01;14.70;99.90
5200;DHT22;2619;47.868;11.892;2022-08-03T01:16:05;14.60;99.90
5200;DHT22;2619;47.868;11.892;2022-08-03T01:18:44;14.60;99.90
5200;DHT22;2619;47.868;11.892;2022-08-03T01:21:18;14.60;99.90
5200;DHT22;2619;47.868;11.892;2022-08-03T01:24:11;14.50;99.90
5200;DHT22;2619;47.868;11.892;2022-08-03T01:26:53;14.50;99.90
5200;DHT22;2619;47.868;11.892;2022-08-03T01:32:20;14.40;99.90
5200;DHT22;2619;47.868;11.892;2022-08-03T01:34:50;14.40;99.90
5200;DHT22;2619;47.868;11.892;2022-08-03T01:37:23;14.30;99.90
5200;DHT22;2619;47.868;11.892;2022-08-03T01:39:53;14.30;99.90
5200;DHT22;2619;47.868;11.892;2022-08-03T01:42:20;14.40;99.90
5200;DHT22;2619;47.868;11.892;2022-08-03T01:44:47;14.30;99.90
5200;DHT22;2619;47.868;11.892;2022-08-03T01:47:15;14.30;99.90
5200;DHT22;2619;47.868;11.892;2022-08-03T01:49:44;14.30;99.90
5200;DHT22;2619;47.868;11.892;2022-08-03T01:52:11;14.30;99.90
5200;DHT22;2619;47.868;11.892;2022-08-03T01:54:45;14.20;99.90
5200;DHT22;2619;47.868;11.892;2022-08-03T01:57:12;14.20;99.90
5200;DHT22;2619;47.868;11.892;2022-08-03T01:59:39;14.20;99.90
5200;DHT22;2619;47.868;11.892;2022-08-03T02:02:07;14.20;99.90
5200;DHT22;2619;47.868;11.892;2022-08-03T02:04:35;14.20;99.90
5200;DHT22;2619;47.868;11.892;2022-08-03T02:07:02;14.20;99.90
5200;DHT22;2619;47.868;11.892;2022-08-03T02:09:29;14.20;99.90
5200;DHT22;2619;47.868;11.892;2022-08-03T02:11:56;14.10;99.90
5200;DHT22;2619;47.868;11.892;2022-08-03T02:14:23;14.10;99.90
5200;DHT22;2619;47.868;11.892;2022-08-03T02:16:50;14.10;99.90
5200;DHT22;2619;47.868;11.892;2022-08-03T02:19:16;14.10;99.90
5200;DHT22;2619;47.868;11.892;2022-08-03T02:21:43;14.10;99.90
5200;DHT22;2619;47.868;11.892;2022-08-03T02:24:10;14.00;99.90
5200;DHT22;2619;47.868;11.892;2022-08-03T02:26:37;14.00;99.90
5200;DHT22;2619;47.868;11.892;2022-08-03T02:29:08;13.90;99.90
5200;DHT22;2619;47.868;11.892;2022-08-03T02:31:36;13.90;99.90
5200;DHT22;2619;47.868;11.892;2022-08-03T02:34:07;13.80;99.90
5200;DHT22;2619;47.868;11.892;2022-08-03T02:36:36;13.80;99.90
5200;DHT22;2619;47.868;11.892;2022-08-03T02:39:02;13.80;99.90
5200;DHT22;2619;47.868;11.892;2022-08-03T02:41:56;13.90;99.90
5200;DHT22;2619;47.868;11.892;2022-08-03T02:44:28;13.80;99.90
5200;DHT22;2619;47.868;11.892;2022-08-03T02:46:57;13.70;99.90
5200;DHT22;2619;47.868;11.892;2022-08-03T02:49:26;13.60;99.90
5200;DHT22;2619;47.868;11.892;2022-08-03T02:51:54;13.60;99.90
5200;DHT22;2619;47.868;11.892;2022-08-03T02:54:22;13.50;99.90
5200;DHT22;2619;47.868;11.892;2022-08-03T02:56:49;13.50;99.90
5200;DHT22;2619;47.868;11.892;2022-08-03T02:59:17;13.30;99.90
5200;DHT22;2619;47.868;11.892;2022-08-03T03:01:44;13.30;99.90
5200;DHT22;2619;47.868;11.892;2022-08-03T03:04:11;13.50;99.90
5200;DHT22;2619;47.868;11.892;2022-08-03T03:06:38;13.60;99.90
5200;DHT22;2619;47.868;11.892;2022-08-03T03:09:04;13.70;99.90
5200;DHT22;2619;47.868;11.892;2022-08-03T03:11:30;13.80;99.90
5200;DHT22;2619;47.868;11.892;2022-08-03T03:13:56;13.80;99.90
5200;DHT22;2619;47.868;11.892;2022-08-03T03:16:22;13.70;99.90
5200;DHT22;2619;47.868;11.892;2022-08-03T03:18:50;13.60;99.90
5200;DHT22;2619;47.868;11.892;2022-08-03T03:21:17;13.50;99.90
5200;DHT22;2619;47.868;11.892;2022-08-03T03:23:44;13.50;99.90
5200;DHT22;2619;47.868;11.892;2022-08-03T03:26:12;13.40;99.90
5200;DHT22;2619;47.868;11.892;2022-08-03T03:28:38;13.30;99.90
5200;DHT22;2619;47.868;11.892;2022-08-03T03:31:05;13.30;99.90
5200;DHT22;2619;47.868;11.892;2022-08-03T03:33:32;13.30;99.90
5200;DHT22;2619;47.868;11.892;2022-08-03T03:35:58;13.20;99.90
5200;DHT22;2619;47.868;11.892;2022-08-03T03:38:24;13.10;99.90
5200;DHT22;2619;47.868;11.892;2022-08-03T03:40:50;13.20;99.90
5200;DHT22;2619;47.868;11.892;2022-08-03T03:43:16;13.20;99.90
5200;DHT22;2619;47.868;11.892;2022-08-03T03:45:45;13.20;99.90
5200;DHT22;2619;47.868;11.892;2022-08-03T03:48:11;13.20;99.90
5200;DHT22;2619;47.868;11.892;2022-08-03T03:50:37;13.10;99.90
5200;DHT22;2619;47.868;11.892;2022-08-03T03:53:08;13.10;99.90
5200;DHT22;2619;47.868;11.892;2022-08-03T03:55:38;13.10;99.90
5200;DHT22;2619;47.868;11.892;2022-08-03T03:58:06;13.10;99.90
5200;DHT22;2619;47.868;11.892;2022-08-03T04:00:32;13.10;99.90
5200;DHT22;2619;47.868;11.892;2022-08-03T04:02:58;13.00;99.90
5200;DHT22;2619;47.868;11.892;2022-08-03T04:05:24;13.00;99.90
5200;DHT22;2619;47.868;11.892;2022-08-03T04:08:11;13.00;99.90
5200;DHT22;2619;47.868;11.892;2022-08-03T04:16:22;13.10;99.90
5200;DHT22;2619;47.868;11.892;2022-08-03T04:18:52;13.20;99.90
5200;DHT22;2619;47.868;11.892;2022-08-03T04:21:20;13.20;99.90
5200;DHT22;2619;47.868;11.892;2022-08-03T04:23:50;13.30;99.90
5200;DHT22;2619;47.868;11.892;2022-08-03T04:26:19;13.30;99.90
5200;DHT22;2619;47.868;11.892;2022-08-03T04:28:46;13.40;99.90
5200;DHT22;2619;47.868;11.892;2022-08-03T04:31:16;13.50;99.90
5200;DHT22;2619;47.868;11.892;2022-08-03T04:33:43;13.60;99.90
5200;DHT22;2619;47.868;11.892;2022-08-03T04:36:13;14.00;99.90
5200;DHT22;2619;47.868;11.892;2022-08-03T04:38:52;14.40;99.90
5200;DHT22;2619;47.868;11.892;2022-08-03T04:41:20;15.10;99.90
5200;DHT22;2619;47.868;11.892;2022-08-03T04:43:47;16.00;99.90
5200;DHT22;2619;47.868;11.892;2022-08-03T04:46:14;16.70;99.90
5200;DHT22;2619;47.868;11.892;2022-08-03T04:48:40;17.60;99.90
5200;DHT22;2619;47.868;11.892;2022-08-03T04:51:07;18.50;99.90
5200;DHT22;2619;47.868;11.892;2022-08-03T04:53:36;19.20;99.90
5200;DHT22;2619;47.868;11.892;2022-08-03T04:56:05;20.00;99.90
5200;DHT22;2619;47.868;11.892;2022-08-03T04:58:31;20.80;99.90
5200;DHT22;2619;47.868;11.892;2022-08-03T05:00:57;21.70;99.90
5200;DHT22;2619;47.868;11.892;2022-08-03T05:03:23;22.50;99.90
5200;DHT22;2619;47.868;11.892;2022-08-03T05:05:49;23.10;99.90
5200;DHT22;2619;47.868;11.892;2022-08-03T05:08:14;23.60;99.90
5200;DHT22;2619;47.868;11.892;2022-08-03T05:10:40;24.40;99.90
5200;DHT22;2619;47.868;11.892;2022-08-03T05:13:06;25.00;99.90
5200;DHT22;2619;47.868;11.892;2022-08-03T05:15:36;25.60;99.90
5200;DHT22;2619;47.868;11.892;2022-08-03T05:18:01;25.90;99.90
5200;DHT22;2619;47.868;11.892;2022-08-03T05:20:27;26.40;99.90
5200;DHT22;2619;47.868;11.892;2022-08-03T05:22:53;26.90;99.90
5200;DHT22;2619;47.868;11.892;2022-08-03T05:25:19;27.40;99.90
5200;DHT22;2619;47.868;11.892;2022-08-03T05:27:44;27.60;99.60
5200;DHT22;2619;47.868;11.892;2022-08-03T05:30:10;27.90;98.20
5200;DHT22;2619;47.868;11.892;2022-08-03T05:32:36;28.30;97.10
5200;DHT22;2619;47.868;11.892;2022-08-03T05:35:01;28.80;95.30
5200;DHT22;2619;47.868;11.892;2022-08-03T05:37:27;29.30;94.20
5200;DHT22;2619;47.868;11.892;2022-08-03T05:39:53;29.40;93.70
5200;DHT22;2619;47.868;11.892;2022-08-03T05:42:18;29.40;92.70
5200;DHT22;2619;47.868;11.892;2022-08-03T05:44:44;29.20;92.40
5200;DHT22;2619;47.868;11.892;2022-08-03T05:47:09;29.30;92.50
5200;DHT22;2619;47.868;11.892;2022-08-03T05:49:35;29.60;91.40
5200;DHT22;2619;47.868;11.892;2022-08-03T05:52:00;30.10;90.40
5200;DHT22;2619;47.868;11.892;2022-08-03T05:54:26;30.70;91.20
5200;DHT22;2619;47.868;11.892;2022-08-03T05:56:52;31.20;90.50
5200;DHT22;2619;47.868;11.892;2022-08-03T05:59:17;31.60;88.30
5200;DHT22;2619;47.868;11.892;2022-08-03T06:01:43;32.00;83.70
5200;DHT22;2619;47.868;11.892;2022-08-03T06:04:09;32.00;85.80
5200;DHT22;2619;47.868;11.892;2022-08-03T06:06:35;32.40;84.40
5200;DHT22;2619;47.868;11.892;2022-08-03T06:09:00;33.10;81.90
5200;DHT22;2619;47.868;11.892;2022-08-03T06:11:26;33.10;76.70
5200;DHT22;2619;47.868;11.892;2022-08-03T06:13:52;33.50;76.40
5200;DHT22;2619;47.868;11.892;2022-08-03T06:16:17;33.50;77.90
5200;DHT22;2619;47.868;11.892;2022-08-03T06:18:43;33.60;77.70
5200;DHT22;2619;47.868;11.892;2022-08-03T06:21:08;33.90;75.50
5200;DHT22;2619;47.868;11.892;2022-08-03T06:23:34;34.50;75.60
5200;DHT22;2619;47.868;11.892;2022-08-03T06:26:01;34.90;74.10
5200;DHT22;2619;47.868;11.892;2022-08-03T06:28:26;34.40;70.90
5200;DHT22;2619;47.868;11.892;2022-08-03T06:30:52;34.30;71.70
5200;DHT22;2619;47.868;11.892;2022-08-03T06:33:17;34.50;70.10
5200;DHT22;2619;47.868;11.892;2022-08-03T06:35:43;34.30;70.90
5200;DHT22;2619;47.868;11.892;2022-08-03T06:38:09;34.10;71.50
5200;DHT22;2619;47.868;11.892;2022-08-03T06:40:35;34.10;72.50
5200;DHT22;2619;47.868;11.892;2022-08-03T06:43:05;33.40;72.40
5200;DHT22;2619;47.868;11.892;2022-08-03T06:45:31;33.70;73.30
5200;DHT22;2619;47.868;11.892;2022-08-03T06:48:11;33.60;74.00
5200;DHT22;2619;47.868;11.892;2022-08-03T06:50:38;34.00;74.80
5200;DHT22;2619;47.868;11.892;2022-08-03T06:53:05;32.90;75.30
5200;DHT22;2619;47.868;11.892;2022-08-03T06:55:31;33.00;74.10
5200;DHT22;2619;47.868;11.892;2022-08-03T06:57:58;32.20;77.00
5200;DHT22;2619;47.868;11.892;2022-08-03T07:00:23;32.40;75.60
5200;DHT22;2619;47.868;11.892;2022-08-03T07:02:49;32.30;76.50
5200;DHT22;2619;47.868;11.892;2022-08-03T07:05:16;31.90;77.00
5200;DHT22;2619;47.868;11.892;2022-08-03T07:07:41;31.50;75.70
5200;DHT22;2619;47.868;11.892;2022-08-03T07:10:08;31.40;76.50
5200;DHT22;2619;47.868;11.892;2022-08-03T07:12:34;31.90;75.50
5200;DHT22;2619;47.868;11.892;2022-08-03T07:15:01;31.50;77.50
5200;DHT22;2619;47.868;11.892;2022-08-03T07:17:32;31.80;75.80
5200;DHT22;2619;47.868;11.892;2022-08-03T07:20:00;32.40;75.70
5200;DHT22;2619;47.868;11.892;2022-08-03T07:22:26;31.80;73.10
5200;DHT22;2619;47.868;11.892;2022-08-03T07:24:51;31.30;78.50
5200;DHT22;2619;47.868;11.892;2022-08-03T07:27:17;31.80;77.60
5200;DHT22;2619;47.868;11.892;2022-08-03T07:29:43;31.10;77.20
5200;DHT22;2619;47.868;11.892;2022-08-03T07:32:08;30.00;81.00
5200;DHT22;2619;47.868;11.892;2022-08-03T07:34:34;29.00;86.20
5200;DHT22;2619;47.868;11.892;2022-08-03T07:37:00;29.60;85.30
5200;DHT22;2619;47.868;11.892;2022-08-03T07:39:25;29.80;84.20
5200;DHT22;2619;47.868;11.892;2022-08-03T07:41:51;29.60;85.20
5200;DHT22;2619;47.868;11.892;2022-08-03T07:44:17;29.20;85.20
5200;DHT22;2619;47.868;11.892;2022-08-03T07:46:44;28.90;87.60
5200;DHT22;2619;47.868;11.892;2022-08-03T07:49:09;28.90;86.30
5200;DHT22;2619;47.868;11.892;2022-08-03T07:51:35;29.00;85.60
5200;DHT22;2619;47.868;11.892;2022-08-03T07:54:01;29.00;85.80
5200;DHT22;2619;47.868;11.892;2022-08-03T07:56:27;28.90;88.50
5200;DHT22;2619;47.868;11.892;2022-08-03T07:58:52;29.40;86.20
5200;DHT22;2619;47.868;11.892;2022-08-03T08:01:18;30.00;85.60
5200;DHT22;2619;47.868;11.892;2022-08-03T08:03:45;30.10;86.60
5200;DHT22;2619;47.868;11.892;2022-08-03T08:06:11;29.30;88.90
5200;DHT22;2619;47.868;11.892;2022-08-03T08:08:39;28.10;92.60
5200;DHT22;2619;47.868;11.892;2022-08-03T08:11:05;28.90;90.40
5200;DHT22;2619;47.868;11.892;2022-08-03T08:13:31;29.30;90.30
5200;DHT22;2619;47.868;11.892;2022-08-03T08:15:57;30.10;89.50
5200;DHT22;2619;47.868;11.892;2022-08-03T08:18:23;29.40;90.10
5200;DHT22;2619;47.868;11.892;2022-08-03T08:20:49;29.20;89.90
5200;DHT22;2619;47.868;11.892;2022-08-03T08:23:15;29.90;89.10
5200;DHT22;2619;47.868;11.892;2022-08-03T08:25:47;30.50;89.10
5200;DHT22;2619;47.868;11.892;2022-08-03T08:28:13;30.10;90.90
5200;DHT22;2619;47.868;11.892;2022-08-03T08:30:38;30.20;90.30
5200;DHT22;2619;47.868;11.892;2022-08-03T08:33:04;30.00;89.70
5200;DHT22;2619;47.868;11.892;2022-08-03T08:35:29;30.10;89.50
5200;DHT22;2619;47.868;11.892;2022-08-03T08:37:55;30.00;90.20
5200;DHT22;2619;47.868;11.892;2022-08-03T08:40:21;30.10;90.60
5200;DHT22;2619;47.868;11.892;2022-08-03T08:42:47;30.20;90.60
5200;DHT22;2619;47.868;11.892;2022-08-03T08:45:13;30.20;91.60
5200;DHT22;2619;47.868;11.892;2022-08-03T08:47:44;29.80;91.80
5200;DHT22;2619;47.868;11.892;2022-08-03T08:50:10;29.40;91.10
5200;DHT22;2619;47.868;11.892;2022-08-03T08:52:39;29.10;92.10
5200;DHT22;2619;47.868;11.892;2022-08-03T08:55:07;28.50;92.50
5200;DHT22;2619;47.868;11.892;2022-08-03T09:00:04;28.80;93.60
5200;DHT22;2619;47.868;11.892;2022-08-03T09:02:30;28.60;92.50
5200;DHT22;2619;47.868;11.892;2022-08-03T09:04:57;28.00;93.10
5200;DHT22;2619;47.868;11.892;2022-08-03T09:07:22;27.50;95.20
5200;DHT22;2619;47.868;11.892;2022-08-03T09:09:48;27.80;94.90
5200;DHT22;2619;47.868;11.892;2022-08-03T09:12:14;27.50;93.40
5200;DHT22;2619;47.868;11.892;2022-08-03T09:14:40;27.40;94.60
5200;DHT22;2619;47.868;11.892;2022-08-03T09:17:06;27.30;94.90
5200;DHT22;2619;47.868;11.892;2022-08-03T09:19:33;27.10;95.00
5200;DHT22;2619;47.868;11.892;2022-08-03T09:22:13;27.20;95.70
5200;DHT22;2619;47.868;11.892;2022-08-03T09:25:03;27.20;94.00
5200;DHT22;2619;47.868;11.892;2022-08-03T09:27:41;26.70;95.40
5200;DHT22;2619;47.868;11.892;2022-08-03T09:30:16;26.60;96.20
5200;DHT22;2619;47.868;11.892;2022-08-03T09:32:42;26.70;96.50
5200;DHT22;2619;47.868;11.892;2022-08-03T09:35:09;26.80;96.70
5200;DHT22;2619;47.868;11.892;2022-08-03T09:37:36;27.00;96.40
5200;DHT22;2619;47.868;11.892;2022-08-03T09:40:02;27.00;95.40
5200;DHT22;2619;47.868;11.892;2022-08-03T09:42:28;26.90;96.00
5200;DHT22;2619;47.868;11.892;2022-08-03T09:44:53;27.30;98.30
5200;DHT22;2619;47.868;11.892;2022-08-03T09:47:48;27.50;94.00
5200;DHT22;2619;47.868;11.892;2022-08-03T09:50:14;27.80;93.60
5200;DHT22;2619;47.868;11.892;2022-08-03T09:52:40;28.00;94.70
5200;DHT22;2619;47.868;11.892;2022-08-03T09:55:11;28.00;93.50
5200;DHT22;2619;47.868;11.892;2022-08-03T09:57:36;28.10;92.10
5200;DHT22;2619;47.868;11.892;2022-08-03T10:00:08;28.20;93.00
5200;DHT22;2619;47.868;11.892;2022-08-03T10:02:38;28.00;95.90
5200;DHT22;2619;47.868;11.892;2022-08-03T10:05:05;28.10;95.60
5200;DHT22;2619;47.868;11.892;2022-08-03T10:07:45;28.30;93.70
5200;DHT22;2619;47.868;11.892;2022-08-03T10:10:12;28.60;95.10
5200;DHT22;2619;47.868;11.892;2022-08-03T10:12:40;28.70;95.10
5200;DHT22;2619;47.868;11.892;2022-08-03T10:15:06;28.30;94.90
5200;DHT22;2619;47.868;11.892;2022-08-03T10:17:33;28.20;94.50
5200;DHT22;2619;47.868;11.892;2022-08-03T10:19:58;28.40;95.10
5200;DHT22;2619;47.868;11.892;2022-08-03T10:22:30;28.30;94.70
5200;DHT22;2619;47.868;11.892;2022-08-03T10:25:07;28.20;95.60
5200;DHT22;2619;47.868;11.892;2022-08-03T10:27:37;28.10;93.10
5200;DHT22;2619;47.868;11.892;2022-08-03T10:30:06;28.20;94.40
5200;DHT22;2619;47.868;11.892;2022-08-03T10:33:06;28.40;94.20
5200;DHT22;2619;47.868;11.892;2022-08-03T10:35:36;28.70;92.70
5200;DHT22;2619;47.868;11.892;2022-08-03T10:38:11;28.90;93.00
5200;DHT22;2619;47.868;11.892;2022-08-03T10:40:37;28.80;93.10
5200;DHT22;2619;47.868;11.892;2022-08-03T10:43:11;28.80;94.30
5200;DHT22;2619;47.868;11.892;2022-08-03T10:45:43;28.80;93.80
5200;DHT22;2619;47.868;11.892;2022-08-03T10:48:10;29.00;95.20
5200;DHT22;2619;47.868;11.892;2022-08-03T10:50:36;29.00;92.50
5200;DHT22;2619;47.868;11.892;2022-08-03T10:53:05;29.20;92.80
5200;DHT22;2619;47.868;11.892;2022-08-03T10:55:36;29.30;92.80
5200;DHT22;2619;47.868;11.892;2022-08-03T11:01:09;28.80;94.10
5200;DHT22;2619;47.868;11.892;2022-08-03T11:06:22;29.00;93.10
5200;DHT22;2619;47.868;11.892;2022-08-03T11:09:12;29.20;94.10
5200;DHT22;2619;47.868;11.892;2022-08-03T11:11:39;29.30;94.80
5200;DHT22;2619;47.868;11.892;2022-08-03T11:16:47;29.70;94.20
5200;DHT22;2619;47.868;11.892;2022-08-03T11:19:18;29.60;93.60
5200;DHT22;2619;47.868;11.892;2022-08-03T11:27:29;29.90;96.00
5200;DHT22;2619;47.868;11.892;2022-08-03T11:30:05;29.80;93.10
5200;DHT22;2619;47.868;11.892;2022-08-03T11:35:30;29.70;92.70
5200;DHT22;2619;47.868;11.892;2022-08-03T11:40:47;29.50;92.30
5200;DHT22;2619;47.868;11.892;2022-08-03T11:46:10;30.00;90.70
5200;DHT22;2619;47.868;11.892;2022-08-03T11:48:46;30.10;91.50
5200;DHT22;2619;47.868;11.892;2022-08-03T11:51:29;30.10;92.10
5200;DHT22;2619;47.868;11.892;2022-08-03T11:54:01;29.90;91.40
5200;DHT22;2619;47.868;11.892;2022-08-03T11:56:28;29.60;93.40
5200;DHT22;2619;47.868;11.892;2022-08-03T11:59:07;29.70;90.40
5200;DHT22;2619;47.868;11.892;2022-08-03T12:01:33;29.70;91.20
5200;DHT22;2619;47.868;11.892;2022-08-03T12:04:02;30.00;84.80
5200;DHT22;2619;47.868;11.892;2022-08-03T12:06:29;30.20;87.90
5200;DHT22;2619;47.868;11.892;2022-08-03T12:08:54;30.40;81.70
5200;DHT22;2619;47.868;11.892;2022-08-03T12:11:20;30.50;83.70
5200;DHT22;2619;47.868;11.892;2022-08-03T12:13:48;30.60;83.30
5200;DHT22;2619;47.868;11.892;2022-08-03T12:16:22;30.60;83.30
5200;DHT22;2619;47.868;11.892;2022-08-03T12:19:03;30.70;84.80
5200;DHT22;2619;47.868;11.892;2022-08-03T12:21:29;30.80;81.90
5200;DHT22;2619;47.868;11.892;2022-08-03T12:24:00;30.70;79.70
5200;DHT22;2619;47.868;11.892;2022-08-03T12:26:28;30.80;82.40
5200;DHT22;2619;47.868;11.892;2022-08-03T12:28:53;30.90;82.30
5200;DHT22;2619;47.868;11.892;2022-08-03T12:31:19;30.90;81.50
5200;DHT22;2619;47.868;11.892;2022-08-03T12:33:59;31.00;79.30
5200;DHT22;2619;47.868;11.892;2022-08-03T12:36:28;31.20;79.20
5200;DHT22;2619;47.868;11.892;2022-08-03T12:38:59;31.30;78.50
5200;DHT22;2619;47.868;11.892;2022-08-03T12:41:33;31.40;77.20
5200;DHT22;2619;47.868;11.892;2022-08-03T12:44:00;31.40;78.30
5200;DHT22;2619;47.868;11.892;2022-08-03T12:46:36;31.40;77.60
5200;DHT22;2619;47.868;11.892;2022-08-03T12:49:06;31.50;82.80
5200;DHT22;2619;47.868;11.892;2022-08-03T12:51:35;31.40;79.10
5200;DHT22;2619;47.868;11.892;2022-08-03T12:54:02;31.40;78.20
5200;DHT22;2619;47.868;11.892;2022-08-03T12:56:29;31.40;81.40
5200;DHT22;2619;47.868;11.892;2022-08-03T12:58:54;31.20;86.40
5200;DHT22;2619;47.868;11.892;2022-08-03T13:01:20;31.10;82.80
5200;DHT22;2619;47.868;11.892;2022-08-03T13:03:50;31.10;81.30
5200;DHT22;2619;47.868;11.892;2022-08-03T13:06:24;31.00;85.00
5200;DHT22;2619;47.868;11.892;2022-08-03T13:09:02;30.80;79.90
5200;DHT22;2619;47.868;11.892;2022-08-03T13:11:28;31.00;80.30
5200;DHT22;2619;47.868;11.892;2022-08-03T13:13:54;31.20;79.40
5200;DHT22;2619;47.868;11.892;2022-08-03T13:16:21;31.10;80.80
5200;DHT22;2619;47.868;11.892;2022-08-03T13:18:50;31.20;78.90
5200;DHT22;2619;47.868;11.892;2022-08-03T13:21:18;31.30;80.00
5200;DHT22;2619;47.868;11.892;2022-08-03T13:23:45;31.40;77.30
5200;DHT22;2619;47.868;11.892;2022-08-03T13:26:11;31.50;76.60
5200;DHT22;2619;47.868;11.892;2022-08-03T13:28:38;31.30;76.70
5200;DHT22;2619;47.868;11.892;2022-08-03T13:31:05;31.40;74.20
5200;DHT22;2619;47.868;11.892;2022-08-03T13:33:31;31.50;79.30
5200;DHT22;2619;47.868;11.892;2022-08-03T13:35:57;31.50;74.60
5200;DHT22;2619;47.868;11.892;2022-08-03T13:38:22;31.50;75.40
5200;DHT22;2619;47.868;11.892;2022-08-03T13:40:50;31.60;76.20
5200;DHT22;2619;47.868;11.892;2022-08-03T13:43:16;31.50;76.60
5200;DHT22;2619;47.868;11.892;2022-08-03T13:45:42;31.50;84.20
5200;DHT22;2619;47.868;11.892;2022-08-03T13:48:07;31.50;77.90
5200;DHT22;2619;47.868;11.892;2022-08-03T13:50:33;31.60;75.80
5200;DHT22;2619;47.868;11.892;2022-08-03T13:52:58;31.70;74.60
5200;DHT22;2619;47.868;11.892;2022-08-03T13:55:24;31.70;78.20
5200;DHT22;2619;47.868;11.892;2022-08-03T13:57:50;31.80;73.20
5200;DHT22;2619;47.868;11.892;2022-08-03T14:00:17;31.70;75.40
5200;DHT22;2619;47.868;11.892;2022-08-03T14:02:43;31.60;74.70
5200;DHT22;2619;47.868;11.892;2022-08-03T14:05:09;31.30;75.50
5200;DHT22;2619;47.868;11.892;2022-08-03T14:07:35;31.10;78.20
5200;DHT22;2619;47.868;11.892;2022-08-03T14:10:01;31.40;77.60
5200;DHT22;2619;47.868;11.892;2022-08-03T14:12:27;31.40;77.50
5200;DHT22;2619;47.868;11.892;2022-08-03T14:14:52;31.10;75.60
5200;DHT22;2619;47.868;11.892;2022-08-03T14:17:18;31.20;78.20
5200;DHT22;2619;47.868;11.892;2022-08-03T14:19:44;31.10;77.20
5200;DHT22;2619;47.868;11.892;2022-08-03T14:22:09;31.10;76.70
5200;DHT22;2619;47.868;11.892;2022-08-03T14:24:35;30.70;74.80
5200;DHT22;2619;47.868;11.892;2022-08-03T14:27:01;30.30;76.70
5200;DHT22;2619;47.868;11.892;2022-08-03T14:29:26;30.30;78.50
5200;DHT22;2619;47.868;11.892;2022-08-03T14:31:52;30.50;77.90
5200;DHT22;2619;47.868;11.892;2022-08-03T14:34:17;30.40;77.90
5200;DHT22;2619;47.868;11.892;2022-08-03T14:36:43;30.10;76.10
5200;DHT22;2619;47.868;11.892;2022-08-03T14:39:09;30.10;74.30
5200;DHT22;2619;47.868;11.892;2022-08-03T14:41:34;30.20;75.90
5200;DHT22;2619;47.868;11.892;2022-08-03T14:44:00;30.30;76.30
5200;DHT22;2619;47.868;11.892;2022-08-03T14:46:26;30.40;75.30
5200;DHT22;2619;47.868;11.892;2022-08-03T14:48:51;30.50;76.10
5200;DHT22;2619;47.868;11.892;2022-08-03T14:51:17;30.40;76.60
5200;DHT22;2619;47.868;11.892;2022-08-03T14:53:43;30.50;76.70
5200;DHT22;2619;47.868;11.892;2022-08-03T14:56:09;30.60;76.40
5200;DHT22;2619;47.868;11.892;2022-08-03T14:58:34;30.60;75.50
5200;DHT22;2619;47.868;11.892;2022-08-03T15:01:00;30.50;74.40
5200;DHT22;2619;47.868;11.892;2022-08-03T15:03:25;30.40;70.80
5200;DHT22;2619;47.868;11.892;2022-08-03T15:05:53;30.40;75.10
5200;DHT22;2619;47.868;11.892;2022-08-03T15:08:19;30.40;76.40
5200;DHT22;2619;47.868;11.892;2022-08-03T15:10:45;30.50;77.00
5200;DHT22;2619;47.868;11.892;2022-08-03T15:13:11;30.60;82.50
5200;DHT22;2619;47.868;11.892;2022-08-03T15:15:37;30.50;82.70
5200;DHT22;2619;47.868;11.892;2022-08-03T15:18:02;30.60;77.70
5200;DHT22;2619;47.868;11.892;2022-08-03T15:20:28;30.60;76.40
5200;DHT22;2619;47.868;11.892;2022-08-03T15:22:54;30.60;72.20
5200;DHT22;2619;47.868;11.892;2022-08-03T15:25:19;30.50;72.50
5200;DHT22;2619;47.868;11.892;2022-08-03T15:27:45;30.30;73.20
5200;DHT22;2619;47.868;11.892;2022-08-03T15:30:11;30.20;74.70
5200;DHT22;2619;47.868;11.892;2022-08-03T15:32:36;30.10;70.60
5200;DHT22;2619;47.868;11.892;2022-08-03T15:35:02;30.10;68.70
5200;DHT22;2619;47.868;11.892;2022-08-03T15:37:28;30.10;67.70
5200;DHT22;2619;47.868;11.892;2022-08-03T15:39:54;30.10;72.60
5200;DHT22;2619;47.868;11.892;2022-08-03T15:42:19;30.00;73.10
5200;DHT22;2619;47.868;11.892;2022-08-03T15:44:45;30.00;79.60
5200;DHT22;2619;47.868;11.892;2022-08-03T15:47:10;30.00;79.30
5200;DHT22;2619;47.868;11.892;2022-08-03T15:49:36;29.80;74.80
5200;DHT22;2619;47.868;11.892;2022-08-03T15:52:03;29.70;74.00
5200;DHT22;2619;47.868;11.892;2022-08-03T15:54:28;29.60;75.20
5200;DHT22;2619;47.868;11.892;2022-08-03T15:56:54;29.70;78.00
5200;DHT22;2619;47.868;11.892;2022-08-03T15:59:20;29.60;81.20
5200;DHT22;2619;47.868;11.892;2022-08-03T16:01:46;29.50;81.60
5200;DHT22;2619;47.868;11.892;2022-08-03T16:04:13;29.50;82.50
5200;DHT22;2619;47.868;11.892;2022-08-03T16:06:38;29.40;83.40
5200;DHT22;2619;47.868;11.892;2022-08-03T16:09:05;29.40;84.10
5200;DHT22;2619;47.868;11.892;2022-08-03T16:11:31;29.30;79.10
5200;DHT22;2619;47.868;11.892;2022-08-03T16:13:57;29.20;80.20
5200;DHT22;2619;47.868;11.892;2022-08-03T16:16:22;29.30;82.60
5200;DHT22;2619;47.868;11.892;2022-08-03T16:18:48;29.20;81.50
5200;DHT22;2619;47.868;11.892;2022-08-03T16:21:13;29.10;83.10
5200;DHT22;2619;47.868;11.892;2022-08-03T16:23:40;29.10;82.90
5200;DHT22;2619;47.868;11.892;2022-08-03T16:26:05;29.00;84.50
5200;DHT22;2619;47.868;11.892;2022-08-03T16:28:32;29.00;83.60